sensor_id;sensor_type;location;lat;lon;timestamp;temperature;humidity
8226;DHT22;4154;48.810;9.012;2023-04-08T00:04:36;8.70;99.90
8226;DHT22;4154;48.810;9.012;2023-04-08T00:07:02;8.70;99.90
8226;DHT22;4154;48.810;9.012;2023-04-08T00:09:28;8.70;99.90
8226;DHT22;4154;48.810;9.012;2023-04-08T00:11:53;8.70;99.90
8226;DHT22;4154;48.810;9.012;2023-04-08T00:16:45;8.70;99.90
8226;DHT22;4154;48.810;9.012;2023-04-08T00:19:11;8.60;99.90
8226;DHT22;4154;48.810;9.012;2023-04-08T00:21:37;8.60;99.90
8226;DHT22;4154;48.810;9.012;2023-04-08T00:24:02;8.60;99.90
8226;DHT22;4154;48.810;9.012;2023-04-08T00:26:28;8.60;99.90
8226;DHT22;4154;48.810;9.012;2023-04-08T00:28:54;8.60;99.90
8226;DHT22;4154;48.810;9.012;2023-04-08T00:31:19;8.60;99.90
8226;DHT22;4154;48.810;9.012;2023-04-08T00:33:46;8.50;99.90
8226;DHT22;4154;48.810;9.012;2023-04-08T00:36:11;8.50;99.90
8226;DHT22;4154;48.810;9.012;2023-04-08T00:38:37;8.50;99.90
8226;DHT22;4154;48.810;9.012;2023-04-08T00:43:28;8.40;99.90
8226;DHT22;4154;48.810;9.012;2023-04-08T00:45:54;8.40;99.90
8226;DHT22;4154;48.810;9.012;2023-04-08T00:48:20;8.40;99.90
8226;DHT22;4154;48.810;9.012;2023-04-08T00:53:18;8.40;99.90
8226;DHT22;4154;48.810;9.012;2023-04-08T00:55:44;8.40;99.90
8226;DHT22;4154;48.810;9.012;2023-04-08T00:58:10;8.40;99.90
8226;DHT22;4154;48.810;9.012;2023-04-08T01:00:50;8.40;99.90
8226;DHT22;4154;48.810;9.012;2023-04-08T01:03:32;8.40;99.90
8226;DHT22;4154;48.810;9.012;2023-04-08T01:06:23;8.40;99.90
8226;DHT22;4154;48.810;9.012;2023-04-08T01:08:59;8.30;99.90
8226;DHT22;4154;48.810;9.012;2023-04-08T01:11:31;8.30;99.90
8226;DHT22;4154;48.810;9.012;2023-04-08T01:14:01;8.30;99.90
8226;DHT22;4154;48.810;9.012;2023-04-08T01:16:31;8.30;99.90
8226;DHT22;4154;48.810;9.012;2023-04-08T01:18:58;8.30;99.90
8226;DHT22;4154;48.810;9.012;2023-04-08T01:21:26;8.30;99.90
8226;DHT22;4154;48.810;9.012;2023-04-08T01:24:07;8.30;99.90
8226;DHT22;4154;48.810;9.012;2023-04-08T01:26:39;8.30;99.90
8226;DHT22;4154;48.810;9.012;2023-04-08T01:29:06;8.30;99.90
8226;DHT22;4154;48.810;9.012;2023-04-08T01:31:35;8.30;99.90
8226;DHT22;4154;48.810;9.012;2023-04-08T01:34:03;8.30;99.90
8226;DHT22;4154;48.810;9.012;2023-04-08T01:39:01;8.20;99.90
8226;DHT22;4154;48.810;9.012;2023-04-08T01:41:30;8.30;99.90
8226;DHT22;4154;48.810;9.012;2023-04-08T01:44:01;8.20;99.90
8226;DHT22;4154;48.810;9.012;2023-04-08T01:46:28;8.20;99.90
8226;DHT22;4154;48.810;9.012;2023-04-08T01:56:18;8.30;99.90
8226;DHT22;4154;48.810;9.012;2023-04-08T01:58:50;8.30;99.90
8226;DHT22;4154;48.810;9.012;2023-04-08T02:01:21;8.20;99.90
8226;DHT22;4154;48.810;9.012;2023-04-08T02:03:50;8.20;99.90
8226;DHT22;4154;48.810;9.012;2023-04-08T02:08:46;8.20;99.90
8226;DHT22;4154;48.810;9.012;2023-04-08T02:11:12;8.20;99.90
8226;DHT22;4154;48.810;9.012;2023-04-08T02:16:32;8.10;99.90
8226;DHT22;4154;48.810;9.012;2023-04-08T02:19:29;8.10;99.90
8226;DHT22;4154;48.810;9.012;2023-04-08T02:22:04;8.10;99.90
8226;DHT22;4154;48.810;9.012;2023-04-08T02:24:41;8.10;99.90
8226;DHT22;4154;48.810;9.012;2023-04-08T02:27:09;8.10;99.90
8226;DHT22;4154;48.810;9.012;2023-04-08T02:29:36;8.10;99.90
8226;DHT22;4154;48.810;9.012;2023-04-08T02:34:33;7.90;99.90
8226;DHT22;4154;48.810;9.012;2023-04-08T02:37:01;7.90;99.90
8226;DHT22;4154;48.810;9.012;2023-04-08T02:39:31;7.90;99.90
8226;DHT22;4154;48.810;9.012;2023-04-08T02:41:57;7.90;99.90
8226;DHT22;4154;48.810;9.012;2023-04-08T02:44:23;7.90;99.90
8226;DHT22;4154;48.810;9.012;2023-04-08T02:46:49;7.90;99.90
8226;DHT22;4154;48.810;9.012;2023-04-08T02:51:41;7.90;99.90
8226;DHT22;4154;48.810;9.012;2023-04-08T02:54:06;7.80;99.90
8226;DHT22;4154;48.810;9.012;2023-04-08T02:56:32;7.80;99.90
8226;DHT22;4154;48.810;9.012;2023-04-08T03:06:16;7.70;99.90
8226;DHT22;4154;48.810;9.012;2023-04-08T03:13:33;7.80;99.90
8226;DHT22;4154;48.810;9.012;2023-04-08T03:15:59;7.80;99.90
8226;DHT22;4154;48.810;9.012;2023-04-08T03:18:25;7.80;99.90
8226;DHT22;4154;48.810;9.012;2023-04-08T03:20:51;7.80;99.90
8226;DHT22;4154;48.810;9.012;2023-04-08T03:23:17;7.90;99.90
8226;DHT22;4154;48.810;9.012;2023-04-08T03:30:34;7.90;99.90
8226;DHT22;4154;48.810;9.012;2023-04-08T03:33:00;7.90;99.90
8226;DHT22;4154;48.810;9.012;2023-04-08T03:35:27;7.90;99.90
8226;DHT22;4154;48.810;9.012;2023-04-08T03:37:53;7.90;99.90
8226;DHT22;4154;48.810;9.012;2023-04-08T03:45:11;7.90;99.90
8226;DHT22;4154;48.810;9.012;2023-04-08T03:47:37;7.90;99.90
8226;DHT22;4154;48.810;9.012;2023-04-08T03:50:03;7.80;99.90
8226;DHT22;4154;48.810;9.012;2023-04-08T03:52:29;7.70;99.90
8226;DHT22;4154;48.810;9.012;2023-04-08T04:02:12;7.70;99.90
8226;DHT22;4154;48.810;9.012;2023-04-08T04:04:38;7.70;99.90
8226;DHT22;4154;48.810;9.012;2023-04-08T04:09:30;7.70;99.90
8226;DHT22;4154;48.810;9.012;2023-04-08T04:11:55;7.70;99.90
8226;DHT22;4154;48.810;9.012;2023-04-08T04:14:21;7.80;99.90
8226;DHT22;4154;48.810;9.012;2023-04-08T04:19:12;7.70;99.90
8226;DHT22;4154;48.810;9.012;2023-04-08T04:21:38;7.70;99.90
8226;DHT22;4154;48.810;9.012;2023-04-08T04:24:04;7.70;99.90
8226;DHT22;4154;48.810;9.012;2023-04-08T04:28:56;8.10;99.90
8226;DHT22;4154;48.810;9.012;2023-04-08T04:31:23;7.80;99.90
8226;DHT22;4154;48.810;9.012;2023-04-08T04:33:53;7.70;99.90
8226;DHT22;4154;48.810;9.012;2023-04-08T04:36:19;7.70;99.90
8226;DHT22;4154;48.810;9.012;2023-04-08T04:38:45;7.70;99.90
8226;DHT22;4154;48.810;9.012;2023-04-08T04:43:37;7.70;99.90
8226;DHT22;4154;48.810;9.012;2023-04-08T04:46:02;7.70;99.90
8226;DHT22;4154;48.810;9.012;2023-04-08T04:50:58;7.70;99.90
8226;DHT22;4154;48.810;9.012;2023-04-08T04:53:26;7.70;99.90
8226;DHT22;4154;48.810;9.012;2023-04-08T04:55:51;7.70;99.90
8226;DHT22;4154;48.810;9.012;2023-04-08T04:58:17;7.70;99.90
8226;DHT22;4154;48.810;9.012;2023-04-08T05:03:10;7.60;99.90
8226;DHT22;4154;48.810;9.012;2023-04-08T05:05:36;7.60;99.90
8226;DHT22;4154;48.810;9.012;2023-04-08T05:10:27;7.60;99.90
8226;DHT22;4154;48.810;9.012;2023-04-08T05:15:20;7.60;99.90
8226;DHT22;4154;48.810;9.012;2023-04-08T05:20:12;7.60;99.90
8226;DHT22;4154;48.810;9.012;2023-04-08T05:22:37;7.60;99.90
8226;DHT22;4154;48.810;9.012;2023-04-08T05:25:04;7.60;99.90
8226;DHT22;4154;48.810;9.012;2023-04-08T05:27:30;7.60;99.90
8226;DHT22;4154;48.810;9.012;2023-04-08T05:29:56;7.60;99.90
8226;DHT22;4154;48.810;9.012;2023-04-08T05:37:14;7.60;99.90
8226;DHT22;4154;48.810;9.012;2023-04-08T05:39:39;7.60;99.90
8226;DHT22;4154;48.810;9.012;2023-04-08T05:42:05;7.50;99.90
8226;DHT22;4154;48.810;9.012;2023-04-08T05:44:31;7.60;99.90
8226;DHT22;4154;48.810;9.012;2023-04-08T05:46:56;7.60;99.90
8226;DHT22;4154;48.810;9.012;2023-04-08T05:49:22;7.60;99.90
8226;DHT22;4154;48.810;9.012;2023-04-08T05:51:48;7.60;99.90
8226;DHT22;4154;48.810;9.012;2023-04-08T05:54:14;7.60;99.90
8226;DHT22;4154;48.810;9.012;2023-04-08T05:56:39;7.60;99.90
8226;DHT22;4154;48.810;9.012;2023-04-08T05:59:05;7.60;99.90
8226;DHT22;4154;48.810;9.012;2023-04-08T06:01:30;7.70;99.90
8226;DHT22;4154;48.810;9.012;2023-04-08T06:03:56;7.70;99.90
8226;DHT22;4154;48.810;9.012;2023-04-08T06:06:22;7.80;99.90
8226;DHT22;4154;48.810;9.012;2023-04-08T06:08:49;7.80;99.90
8226;DHT22;4154;48.810;9.012;2023-04-08T06:11:15;7.80;99.90
8226;DHT22;4154;48.810;9.012;2023-04-08T06:13:41;7.80;99.90
8226;DHT22;4154;48.810;9.012;2023-04-08T06:16:14;7.80;99.90
8226;DHT22;4154;48.810;9.012;2023-04-08T06:18:44;7.90;99.90
8226;DHT22;4154;48.810;9.012;2023-04-08T06:21:09;7.90;99.90
8226;DHT22;4154;48.810;9.012;2023-04-08T06:23:36;7.90;99.90
8226;DHT22;4154;48.810;9.012;2023-04-08T06:33:22;7.90;99.90
8226;DHT22;4154;48.810;9.012;2023-04-08T06:35:47;8.10;99.90
8226;DHT22;4154;48.810;9.012;2023-04-08T06:47:58;8.10;99.90
8226;DHT22;4154;48.810;9.012;2023-04-08T06:50:24;8.20;99.90
8226;DHT22;4154;48.810;9.012;2023-04-08T06:55:16;8.20;99.90
8226;DHT22;4154;48.810;9.012;2023-04-08T06:57:42;8.20;99.90
8226;DHT22;4154;48.810;9.012;2023-04-08T07:00:08;8.20;99.90
8226;DHT22;4154;48.810;9.012;2023-04-08T07:02:34;8.20;99.90
8226;DHT22;4154;48.810;9.012;2023-04-08T07:07:26;8.20;99.90
8226;DHT22;4154;48.810;9.012;2023-04-08T07:19:36;8.30;99.90
8226;DHT22;4154;48.810;9.012;2023-04-08T07:26:54;8.40;99.90
8226;DHT22;4154;48.810;9.012;2023-04-08T07:29:21;8.40;99.90
8226;DHT22;4154;48.810;9.012;2023-04-08T07:31:46;8.40;99.90
8226;DHT22;4154;48.810;9.012;2023-04-08T07:34:12;8.40;99.90
8226;DHT22;4154;48.810;9.012;2023-04-08T07:36:38;8.50;99.90
8226;DHT22;4154;48.810;9.012;2023-04-08T07:39:03;8.50;99.90
8226;DHT22;4154;48.810;9.012;2023-04-08T07:43:55;8.60;99.90
8226;DHT22;4154;48.810;9.012;2023-04-08T07:46:21;8.60;99.90
8226;DHT22;4154;48.810;9.012;2023-04-08T07:48:46;8.60;99.90
8226;DHT22;4154;48.810;9.012;2023-04-08T07:53:39;8.70;99.90
8226;DHT22;4154;48.810;9.012;2023-04-08T07:56:14;8.70;99.90
8226;DHT22;4154;48.810;9.012;2023-04-08T07:58:42;8.80;99.90
8226;DHT22;4154;48.810;9.012;2023-04-08T08:01:18;8.90;99.90
8226;DHT22;4154;48.810;9.012;2023-04-08T08:03:47;9.00;99.90
8226;DHT22;4154;48.810;9.012;2023-04-08T08:06:16;9.10;99.90
8226;DHT22;4154;48.810;9.012;2023-04-08T08:08:42;9.10;99.90
8226;DHT22;4154;48.810;9.012;2023-04-08T08:11:07;9.20;99.50
8226;DHT22;4154;48.810;9.012;2023-04-08T08:13:33;9.20;99.60
8226;DHT22;4154;48.810;9.012;2023-04-08T08:15:59;9.30;99.20
8226;DHT22;4154;48.810;9.012;2023-04-08T08:18:25;9.30;99.10
8226;DHT22;4154;48.810;9.012;2023-04-08T08:20:51;9.30;99.20
8226;DHT22;4154;48.810;9.012;2023-04-08T08:23:16;9.40;99.00
8226;DHT22;4154;48.810;9.012;2023-04-08T08:25:42;9.30;99.90
8226;DHT22;4154;48.810;9.012;2023-04-08T08:28:08;9.40;98.60
8226;DHT22;4154;48.810;9.012;2023-04-08T08:30:34;9.40;98.80
8226;DHT22;4154;48.810;9.012;2023-04-08T08:33:00;9.40;99.00
8226;DHT22;4154;48.810;9.012;2023-04-08T08:37:53;9.40;98.30
8226;DHT22;4154;48.810;9.012;2023-04-08T08:40:18;9.30;98.80
8226;DHT22;4154;48.810;9.012;2023-04-08T08:42:51;9.40;98.40
8226;DHT22;4154;48.810;9.012;2023-04-08T08:45:21;9.50;98.50
8226;DHT22;4154;48.810;9.012;2023-04-08T08:50:13;9.50;98.50
8226;DHT22;4154;48.810;9.012;2023-04-08T08:55:12;9.60;98.30
8226;DHT22;4154;48.810;9.012;2023-04-08T08:57:37;9.60;98.50
8226;DHT22;4154;48.810;9.012;2023-04-08T09:00:03;9.60;98.20
8226;DHT22;4154;48.810;9.012;2023-04-08T09:02:30;9.70;97.50
8226;DHT22;4154;48.810;9.012;2023-04-08T09:05:05;9.70;97.80
8226;DHT22;4154;48.810;9.012;2023-04-08T09:07:34;9.80;97.30
8226;DHT22;4154;48.810;9.012;2023-04-08T09:15:08;9.80;96.40
8226;DHT22;4154;48.810;9.012;2023-04-08T09:17:36;9.90;95.90
8226;DHT22;4154;48.810;9.012;2023-04-08T09:20:05;9.90;95.90
8226;DHT22;4154;48.810;9.012;2023-04-08T09:25:26;9.90;96.30
8226;DHT22;4154;48.810;9.012;2023-04-08T09:27:53;9.90;96.50
8226;DHT22;4154;48.810;9.012;2023-04-08T09:30:23;9.90;96.50
8226;DHT22;4154;48.810;9.012;2023-04-08T09:32:55;10.00;96.20
8226;DHT22;4154;48.810;9.012;2023-04-08T09:40:16;10.20;95.90
8226;DHT22;4154;48.810;9.012;2023-04-08T09:42:47;10.30;95.10
8226;DHT22;4154;48.810;9.012;2023-04-08T09:45:18;10.40;94.90
8226;DHT22;4154;48.810;9.012;2023-04-08T09:48:16;10.40;94.50
8226;DHT22;4154;48.810;9.012;2023-04-08T09:50:49;10.40;94.10
8226;DHT22;4154;48.810;9.012;2023-04-08T09:53:33;10.40;94.30
8226;DHT22;4154;48.810;9.012;2023-04-08T09:56:01;10.50;94.20
8226;DHT22;4154;48.810;9.012;2023-04-08T09:58:38;10.60;93.20
8226;DHT22;4154;48.810;9.012;2023-04-08T10:01:39;10.60;93.40
8226;DHT22;4154;48.810;9.012;2023-04-08T10:04:14;10.70;92.80
8226;DHT22;4154;48.810;9.012;2023-04-08T10:06:51;10.70;92.70
8226;DHT22;4154;48.810;9.012;2023-04-08T10:09:21;10.70;92.90
8226;DHT22;4154;48.810;9.012;2023-04-08T10:11:47;10.80;92.80
8226;DHT22;4154;48.810;9.012;2023-04-08T10:19:37;11.00;92.30
8226;DHT22;4154;48.810;9.012;2023-04-08T10:27:42;11.20;92.10
8226;DHT22;4154;48.810;9.012;2023-04-08T10:35:38;11.00;93.10
8226;DHT22;4154;48.810;9.012;2023-04-08T10:40:37;11.10;93.10
8226;DHT22;4154;48.810;9.012;2023-04-08T10:48:23;10.80;92.60
8226;DHT22;4154;48.810;9.012;2023-04-08T10:53:29;10.80;93.40
8226;DHT22;4154;48.810;9.012;2023-04-08T10:56:05;10.70;93.50
8226;DHT22;4154;48.810;9.012;2023-04-08T10:58:47;10.70;93.30
8226;DHT22;4154;48.810;9.012;2023-04-08T11:01:17;10.70;93.50
8226;DHT22;4154;48.810;9.012;2023-04-08T11:03:44;10.70;93.40
8226;DHT22;4154;48.810;9.012;2023-04-08T11:06:10;10.80;93.20
8226;DHT22;4154;48.810;9.012;2023-04-08T11:11:03;10.70;93.80
8226;DHT22;4154;48.810;9.012;2023-04-08T11:13:39;10.80;93.60
8226;DHT22;4154;48.810;9.012;2023-04-08T11:16:07;10.80;93.10
8226;DHT22;4154;48.810;9.012;2023-04-08T11:25:56;10.80;92.10
8226;DHT22;4154;48.810;9.012;2023-04-08T11:28:22;10.90;91.90
8226;DHT22;4154;48.810;9.012;2023-04-08T11:30:49;10.90;91.80
8226;DHT22;4154;48.810;9.012;2023-04-08T11:33:15;10.80;91.90
8226;DHT22;4154;48.810;9.012;2023-04-08T11:35:43;10.90;91.10
8226;DHT22;4154;48.810;9.012;2023-04-08T11:38:09;10.90;91.30
8226;DHT22;4154;48.810;9.012;2023-04-08T11:40:36;10.90;91.70
8226;DHT22;4154;48.810;9.012;2023-04-08T11:43:09;10.80;91.30
8226;DHT22;4154;48.810;9.012;2023-04-08T11:45:40;10.80;97.60
8226;DHT22;4154;48.810;9.012;2023-04-08T11:48:10;10.80;91.90
8226;DHT22;4154;48.810;9.012;2023-04-08T11:53:02;10.90;90.50
8226;DHT22;4154;48.810;9.012;2023-04-08T11:55:30;10.90;90.10
8226;DHT22;4154;48.810;9.012;2023-04-08T11:58:03;10.90;90.30
8226;DHT22;4154;48.810;9.012;2023-04-08T12:02:58;11.00;87.20
8226;DHT22;4154;48.810;9.012;2023-04-08T12:05:24;11.00;86.70
8226;DHT22;4154;48.810;9.012;2023-04-08T12:07:49;10.90;87.70
8226;DHT22;4154;48.810;9.012;2023-04-08T12:10:15;11.00;87.50
8226;DHT22;4154;48.810;9.012;2023-04-08T12:15:07;10.90;88.50
8226;DHT22;4154;48.810;9.012;2023-04-08T12:17:34;10.70;88.20
8226;DHT22;4154;48.810;9.012;2023-04-08T12:24:52;10.80;88.40
8226;DHT22;4154;48.810;9.012;2023-04-08T12:27:18;10.80;89.10
8226;DHT22;4154;48.810;9.012;2023-04-08T12:29:43;10.80;89.60
8226;DHT22;4154;48.810;9.012;2023-04-08T12:32:10;10.70;89.60
8226;DHT22;4154;48.810;9.012;2023-04-08T12:34:36;10.70;90.00
8226;DHT22;4154;48.810;9.012;2023-04-08T12:37:02;10.70;90.60
8226;DHT22;4154;48.810;9.012;2023-04-08T12:39:27;10.70;90.10
8226;DHT22;4154;48.810;9.012;2023-04-08T12:44:19;10.60;89.90
8226;DHT22;4154;48.810;9.012;2023-04-08T12:46:45;10.60;90.60
8226;DHT22;4154;48.810;9.012;2023-04-08T12:51:37;10.60;90.90
8226;DHT22;4154;48.810;9.012;2023-04-08T12:54:03;10.60;91.10
8226;DHT22;4154;48.810;9.012;2023-04-08T12:56:30;10.50;90.80
8226;DHT22;4154;48.810;9.012;2023-04-08T12:58:56;10.50;91.30
8226;DHT22;4154;48.810;9.012;2023-04-08T13:01:23;10.50;91.30
8226;DHT22;4154;48.810;9.012;2023-04-08T13:03:49;10.50;91.50
8226;DHT22;4154;48.810;9.012;2023-04-08T13:06:15;10.50;91.20
8226;DHT22;4154;48.810;9.012;2023-04-08T13:11:07;10.50;91.10
8226;DHT22;4154;48.810;9.012;2023-04-08T13:25:46;10.70;96.60
8226;DHT22;4154;48.810;9.012;2023-04-08T13:30:38;10.80;90.80
8226;DHT22;4154;48.810;9.012;2023-04-08T13:33:04;10.40;90.70
8226;DHT22;4154;48.810;9.012;2023-04-08T13:37:56;10.80;90.50
8226;DHT22;4154;48.810;9.012;2023-04-08T13:40:31;10.70;90.90
8226;DHT22;4154;48.810;9.012;2023-04-08T13:45:23;10.90;90.30
8226;DHT22;4154;48.810;9.012;2023-04-08T13:47:49;10.90;90.80
8226;DHT22;4154;48.810;9.012;2023-04-08T13:52:41;11.00;90.50
8226;DHT22;4154;48.810;9.012;2023-04-08T13:55:07;11.10;90.80
8226;DHT22;4154;48.810;9.012;2023-04-08T13:59:59;11.10;90.50
8226;DHT22;4154;48.810;9.012;2023-04-08T14:02:25;11.10;91.20
8226;DHT22;4154;48.810;9.012;2023-04-08T14:04:50;11.00;91.20
8226;DHT22;4154;48.810;9.012;2023-04-08T14:21:54;11.20;90.50
8226;DHT22;4154;48.810;9.012;2023-04-08T14:24:20;11.20;90.60
8226;DHT22;4154;48.810;9.012;2023-04-08T14:26:46;11.30;90.50
8226;DHT22;4154;48.810;9.012;2023-04-08T14:29:11;11.30;90.90
8226;DHT22;4154;48.810;9.012;2023-04-08T14:31:37;11.30;90.90
8226;DHT22;4154;48.810;9.012;2023-04-08T14:34:03;11.40;90.60
8226;DHT22;4154;48.810;9.012;2023-04-08T14:41:25;11.50;90.00
8226;DHT22;4154;48.810;9.012;2023-04-08T14:46:19;11.60;90.10
8226;DHT22;4154;48.810;9.012;2023-04-08T14:48:45;11.60;90.80
8226;DHT22;4154;48.810;9.012;2023-04-08T14:51:11;11.60;90.90
8226;DHT22;4154;48.810;9.012;2023-04-08T14:53:36;11.70;90.20
8226;DHT22;4154;48.810;9.012;2023-04-08T14:56:02;11.70;90.30
8226;DHT22;4154;48.810;9.012;2023-04-08T14:58:29;11.80;90.40
8226;DHT22;4154;48.810;9.012;2023-04-08T15:00:55;11.80;90.30
8226;DHT22;4154;48.810;9.012;2023-04-08T15:03:21;11.80;90.00
8226;DHT22;4154;48.810;9.012;2023-04-08T15:10:40;11.70;89.00
8226;DHT22;4154;48.810;9.012;2023-04-08T15:17:59;11.40;89.70
8226;DHT22;4154;48.810;9.012;2023-04-08T15:20:31;11.30;95.60
8226;DHT22;4154;48.810;9.012;2023-04-08T15:27:48;11.30;90.10
8226;DHT22;4154;48.810;9.012;2023-04-08T15:30:14;11.30;90.00
8226;DHT22;4154;48.810;9.012;2023-04-08T15:32:41;11.10;90.40
8226;DHT22;4154;48.810;9.012;2023-04-08T15:35:08;11.20;90.30
8226;DHT22;4154;48.810;9.012;2023-04-08T15:37:34;11.20;90.50
8226;DHT22;4154;48.810;9.012;2023-04-08T15:42:26;11.30;90.10
8226;DHT22;4154;48.810;9.012;2023-04-08T15:44:52;11.20;90.20
8226;DHT22;4154;48.810;9.012;2023-04-08T16:14:16;10.70;91.10
8226;DHT22;4154;48.810;9.012;2023-04-08T16:19:08;10.70;91.50
8226;DHT22;4154;48.810;9.012;2023-04-08T16:21:34;10.70;91.60
8226;DHT22;4154;48.810;9.012;2023-04-08T16:26:26;10.70;91.60
8226;DHT22;4154;48.810;9.012;2023-04-08T16:28:52;10.70;91.80
8226;DHT22;4154;48.810;9.012;2023-04-08T16:31:18;10.70;91.80
8226;DHT22;4154;48.810;9.012;2023-04-08T16:33:44;10.60;92.00
8226;DHT22;4154;48.810;9.012;2023-04-08T16:36:09;10.60;92.20
8226;DHT22;4154;48.810;9.012;2023-04-08T16:41:01;10.60;91.80
8226;DHT22;4154;48.810;9.012;2023-04-08T16:43:30;10.50;92.00
8226;DHT22;4154;48.810;9.012;2023-04-08T16:45:56;10.40;92.20
8226;DHT22;4154;48.810;9.012;2023-04-08T16:48:21;10.50;92.10
8226;DHT22;4154;48.810;9.012;2023-04-08T16:50:47;10.40;92.20
8226;DHT22;4154;48.810;9.012;2023-04-08T16:53:13;10.50;91.90
8226;DHT22;4154;48.810;9.012;2023-04-08T16:55:38;10.40;98.10
8226;DHT22;4154;48.810;9.012;2023-04-08T16:58:04;10.40;92.10
8226;DHT22;4154;48.810;9.012;2023-04-08T17:05:24;10.30;92.80
8226;DHT22;4154;48.810;9.012;2023-04-08T17:07:51;10.30;93.00
8226;DHT22;4154;48.810;9.012;2023-04-08T17:10:16;10.20;92.90
8226;DHT22;4154;48.810;9.012;2023-04-08T17:12:43;10.10;93.10
8226;DHT22;4154;48.810;9.012;2023-04-08T17:15:10;10.10;93.10
8226;DHT22;4154;48.810;9.012;2023-04-08T17:20:03;10.20;93.10
8226;DHT22;4154;48.810;9.012;2023-04-08T17:22:30;10.10;93.50
8226;DHT22;4154;48.810;9.012;2023-04-08T17:24:55;10.10;94.20
8226;DHT22;4154;48.810;9.012;2023-04-08T17:27:21;10.00;94.70
8226;DHT22;4154;48.810;9.012;2023-04-08T17:29:47;10.00;95.10
8226;DHT22;4154;48.810;9.012;2023-04-08T17:32:13;9.90;96.10
8226;DHT22;4154;48.810;9.012;2023-04-08T17:34:39;9.80;96.40
8226;DHT22;4154;48.810;9.012;2023-04-08T17:37:05;9.70;96.70
8226;DHT22;4154;48.810;9.012;2023-04-08T17:39:31;9.60;96.70
8226;DHT22;4154;48.810;9.012;2023-04-08T17:44:23;9.60;96.90
8226;DHT22;4154;48.810;9.012;2023-04-08T17:46:54;9.50;97.10
8226;DHT22;4154;48.810;9.012;2023-04-08T17:49:21;9.50;97.20
8226;DHT22;4154;48.810;9.012;2023-04-08T17:51:47;9.40;97.50
8226;DHT22;4154;48.810;9.012;2023-04-08T17:54:13;9.50;97.50
8226;DHT22;4154;48.810;9.012;2023-04-08T17:56:38;9.50;97.50
8226;DHT22;4154;48.810;9.012;2023-04-08T17:59:04;9.40;97.40
8226;DHT22;4154;48.810;9.012;2023-04-08T18:01:29;9.40;97.50
8226;DHT22;4154;48.810;9.012;2023-04-08T18:03:55;9.40;97.40
8226;DHT22;4154;48.810;9.012;2023-04-08T18:06:21;9.40;97.30
8226;DHT22;4154;48.810;9.012;2023-04-08T18:08:46;9.40;97.30
8226;DHT22;4154;48.810;9.012;2023-04-08T18:11:12;9.30;97.30
8226;DHT22;4154;48.810;9.012;2023-04-08T18:13:38;9.30;97.30
8226;DHT22;4154;48.810;9.012;2023-04-08T18:16:04;9.30;97.40
8226;DHT22;4154;48.810;9.012;2023-04-08T18:18:29;9.20;97.30
8226;DHT22;4154;48.810;9.012;2023-04-08T18:20:56;9.20;97.40
8226;DHT22;4154;48.810;9.012;2023-04-08T18:28:14;9.10;97.40
8226;DHT22;4154;48.810;9.012;2023-04-08T18:30:40;9.20;97.70
8226;DHT22;4154;48.810;9.012;2023-04-08T18:33:07;9.20;97.60
8226;DHT22;4154;48.810;9.012;2023-04-08T18:37:59;9.20;97.30
8226;DHT22;4154;48.810;9.012;2023-04-08T18:40:24;9.10;97.40
8226;DHT22;4154;48.810;9.012;2023-04-08T18:42:50;9.10;97.40
8226;DHT22;4154;48.810;9.012;2023-04-08T18:45:16;9.10;97.40
8226;DHT22;4154;48.810;9.012;2023-04-08T18:47:41;9.20;97.40
8226;DHT22;4154;48.810;9.012;2023-04-08T18:50:07;9.20;97.40
8226;DHT22;4154;48.810;9.012;2023-04-08T18:52:34;9.20;97.40
8226;DHT22;4154;48.810;9.012;2023-04-08T18:54:59;9.10;97.30
8226;DHT22;4154;48.810;9.012;2023-04-08T18:57:25;9.10;97.30
8226;DHT22;4154;48.810;9.012;2023-04-08T19:07:09;9.10;96.80
8226;DHT22;4154;48.810;9.012;2023-04-08T19:09:36;9.10;97.10
8226;DHT22;4154;48.810;9.012;2023-04-08T19:12:02;9.10;97.20
8226;DHT22;4154;48.810;9.012;2023-04-08T19:14:27;9.10;97.20
8226;DHT22;4154;48.810;9.012;2023-04-08T19:16:53;9.10;97.20
8226;DHT22;4154;48.810;9.012;2023-04-08T19:19:18;9.10;97.10
8226;DHT22;4154;48.810;9.012;2023-04-08T19:24:12;9.10;96.80
8226;DHT22;4154;48.810;9.012;2023-04-08T19:26:37;9.00;97.00
8226;DHT22;4154;48.810;9.012;2023-04-08T19:31:29;8.80;99.90
8226;DHT22;4154;48.810;9.012;2023-04-08T19:33:55;9.10;96.90
8226;DHT22;4154;48.810;9.012;2023-04-08T19:36:20;9.00;96.80
8226;DHT22;4154;48.810;9.012;2023-04-08T19:38:46;9.00;96.90
8226;DHT22;4154;48.810;9.012;2023-04-08T19:41:11;9.00;96.90
8226;DHT22;4154;48.810;9.012;2023-04-08T19:43:37;9.00;96.90
8226;DHT22;4154;48.810;9.012;2023-04-08T19:46:03;9.00;96.90
8226;DHT22;4154;48.810;9.012;2023-04-08T19:48:30;9.00;96.80
8226;DHT22;4154;48.810;9.012;2023-04-08T19:50:57;9.00;96.80
8226;DHT22;4154;48.810;9.012;2023-04-08T19:53:22;9.00;96.70
8226;DHT22;4154;48.810;9.012;2023-04-08T19:55:48;8.80;99.90
8226;DHT22;4154;48.810;9.012;2023-04-08T19:58:13;9.00;96.80
8226;DHT22;4154;48.810;9.012;2023-04-08T20:03:06;8.90;96.60
8226;DHT22;4154;48.810;9.012;2023-04-08T20:05:32;9.50;99.90
8226;DHT22;4154;48.810;9.012;2023-04-08T20:10:24;9.00;96.60
8226;DHT22;4154;48.810;9.012;2023-04-08T20:12:51;9.00;96.80
8226;DHT22;4154;48.810;9.012;2023-04-08T20:15:17;8.90;96.70
8226;DHT22;4154;48.810;9.012;2023-04-08T20:17:43;8.90;96.70
8226;DHT22;4154;48.810;9.012;2023-04-08T20:20:09;8.90;96.70
8226;DHT22;4154;48.810;9.012;2023-04-08T20:22:35;8.80;96.80
8226;DHT22;4154;48.810;9.012;2023-04-08T20:25:01;8.80;96.90
8226;DHT22;4154;48.810;9.012;2023-04-08T20:29:53;8.80;96.80
8226;DHT22;4154;48.810;9.012;2023-04-08T20:32:21;8.80;97.00
8226;DHT22;4154;48.810;9.012;2023-04-08T20:37:14;8.80;96.70
8226;DHT22;4154;48.810;9.012;2023-04-08T20:47:00;8.80;96.60
8226;DHT22;4154;48.810;9.012;2023-04-08T20:49:25;8.80;96.80
8226;DHT22;4154;48.810;9.012;2023-04-08T20:51:51;8.80;96.70
8226;DHT22;4154;48.810;9.012;2023-04-08T20:54:17;8.80;96.90
8226;DHT22;4154;48.810;9.012;2023-04-08T20:56:42;8.70;96.80
8226;DHT22;4154;48.810;9.012;2023-04-08T20:59:08;8.80;96.80
8226;DHT22;4154;48.810;9.012;2023-04-08T21:04:00;8.80;96.70
8226;DHT22;4154;48.810;9.012;2023-04-08T21:06:27;8.80;96.90
8226;DHT22;4154;48.810;9.012;2023-04-08T21:08:53;8.80;96.80
8226;DHT22;4154;48.810;9.012;2023-04-08T21:11:19;8.80;96.80
8226;DHT22;4154;48.810;9.012;2023-04-08T21:13:45;8.80;96.70
8226;DHT22;4154;48.810;9.012;2023-04-08T21:18:37;8.80;96.40
8226;DHT22;4154;48.810;9.012;2023-04-08T21:21:04;8.80;96.50
8226;DHT22;4154;48.810;9.012;2023-04-08T21:23:30;8.80;96.50
8226;DHT22;4154;48.810;9.012;2023-04-08T21:25:55;8.80;96.50
8226;DHT22;4154;48.810;9.012;2023-04-08T21:28:21;8.80;96.50
8226;DHT22;4154;48.810;9.012;2023-04-08T21:30:47;8.80;96.40
8226;DHT22;4154;48.810;9.012;2023-04-08T21:33:12;8.70;96.30
8226;DHT22;4154;48.810;9.012;2023-04-08T21:35:38;8.50;99.90
8226;DHT22;4154;48.810;9.012;2023-04-08T21:38:04;8.60;96.30
8226;DHT22;4154;48.810;9.012;2023-04-08T21:40:30;8.60;96.40
8226;DHT22;4154;48.810;9.012;2023-04-08T21:45:21;8.50;96.10
8226;DHT22;4154;48.810;9.012;2023-04-08T21:47:47;8.50;96.30
8226;DHT22;4154;48.810;9.012;2023-04-08T21:50:15;8.40;96.30
8226;DHT22;4154;48.810;9.012;2023-04-08T21:55:08;8.30;96.10
8226;DHT22;4154;48.810;9.012;2023-04-08T21:57:34;8.20;96.30
8226;DHT22;4154;48.810;9.012;2023-04-08T21:59:59;8.10;96.30
8226;DHT22;4154;48.810;9.012;2023-04-08T22:02:25;8.10;96.30
8226;DHT22;4154;48.810;9.012;2023-04-08T22:04:51;8.00;96.30
8226;DHT22;4154;48.810;9.012;2023-04-08T22:36:32;7.50;99.90
8226;DHT22;4154;48.810;9.012;2023-04-08T22:38:58;7.60;95.80